Martine P — 2FIL4 — position and weather

sailwx.info

Track history (hours):
 
Tides and Currents Weather Stations Pressure Air Temp Water Temp Dewpoint Dewpoint Depression Visibility Wind Speed Wind Dir Waves Ship Positions

Martine P

Last reported at 2018-Apr-25 06:18 UTC. Time now 2018-Apr-25 07:01 UTC.
Position N 52°13' E 003°25'.

Length 27 m; draft 3.2 m.

Type: Tug. MMSI: 235091541.

Date/timePositionNaut miles runAvg speedWind from/ knotsBaromVisibWave heightAir tempDewpointWater temp
2018-Apr-25 06:18N 52°13' E 003°25'2 6.6
2018-Apr-25 05:59N 52°12' E 003°27'3 6.7
2018-Apr-25 05:30N 52°09' E 003°31'4 6.9
2018-Apr-25 05:00N 52°08' E 003°36'3 7.1
2018-Apr-25 04:30N 52°06' E 003°40'3 6.9
2018-Apr-25 04:00N 52°04' E 003°46'3 6.5
2018-Apr-25 03:29N 52°03' E 003°51'3 6.8
2018-Apr-25 03:00N 52°02' E 003°55'3 6.2
2018-Apr-25 02:30N 52°01' E 004°00'4 7.0
2018-Apr-25 02:00N 51°59' E 004°05'4 7.5
2018-Apr-25 01:30N 51°57' E 004°10'3 6.6
2018-Apr-25 00:59N 51°55' E 004°15'0 0.1
2018-Apr-25 00:29N 51°55' E 004°15'0 0.0
2018-Apr-24 23:56N 51°55' E 004°15'0 0.0
2018-Apr-24 23:29N 51°55' E 004°15'0 0.0
2018-Apr-24 22:59N 51°55' E 004°15'0 0.0
2018-Apr-24 22:26N 51°55' E 004°15'0 0.0
2018-Apr-24 21:56N 51°55' E 004°15'0 0.0
2018-Apr-24 21:29N 51°55' E 004°15'0 0.0
2018-Apr-24 20:56N 51°55' E 004°15'0 0.0
2018-Apr-24 20:29N 51°55' E 004°15'0 0.0
2018-Apr-24 19:59N 51°55' E 004°15'0 0.0
2018-Apr-24 19:23N 51°55' E 004°15'0 0.0
2018-Apr-24 18:59N 51°55' E 004°15'0 0.0
2018-Apr-24 18:26N 51°55' E 004°15'0 0.0
2018-Apr-24 17:56N 51°55' E 004°15'0 0.0
2018-Apr-24 17:20N 51°55' E 004°15'0 0.0
2018-Apr-24 16:59N 51°55' E 004°15'0 0.0
2018-Apr-24 16:23N 51°55' E 004°15'0 0.0
2018-Apr-24 15:59N 51°55' E 004°15'0 0.0
2018-Apr-24 15:29N 51°55' E 004°15'0 0.0
2018-Apr-24 14:41N 51°55' E 004°15'0 0.0
2018-Apr-24 14:26N 51°55' E 004°15'0 0.0
2018-Apr-24 13:59N 51°55' E 004°15'0 0.0
2018-Apr-24 13:29N 51°55' E 004°15'0 0.0
2018-Apr-24 12:59N 51°55' E 004°15'0 0.0
2018-Apr-24 12:26N 51°55' E 004°15'0 0.0
2018-Apr-24 11:56N 51°55' E 004°15'0 0.0
2018-Apr-24 11:20N 51°55' E 004°15'0 0.0
2018-Apr-24 10:56N 51°55' E 004°15'0 0.0
2018-Apr-24 10:29N 51°55' E 004°15'0 0.0
2018-Apr-24 09:59N 51°55' E 004°15'0 0.0
2018-Apr-24 09:29N 51°55' E 004°15'0 0.0
2018-Apr-24 08:56N 51°55' E 004°15'0 0.0
2018-Apr-24 08:23N 51°55' E 004°15'0 0.0
2018-Apr-24 07:59N 51°55' E 004°15'0 0.0
2018-Apr-24 07:29N 51°55' E 004°15'0 0.0
2018-Apr-24 06:59N 51°55' E 004°15'0 0.0
2018-Apr-24 06:23N 51°55' E 004°15'0 0.0
2018-Apr-24 04:14N 51°55' E 004°15'0 0.1
2018-Apr-24 03:59N 51°55' E 004°15'0 0.0
2018-Apr-24 01:20N 51°55' E 004°15'0 0.0
2018-Apr-24 00:20N 51°55' E 004°15'0 0.0
2018-Apr-23 23:50N 51°55' E 004°15'0 0.0
2018-Apr-23 23:26N 51°55' E 004°15'0 0.0
2018-Apr-23 21:38N 51°55' E 004°15'0 0.0
2018-Apr-23 20:44N 51°55' E 004°15'0 0.5
2018-Apr-23 20:29N 51°55' E 004°15'3 6.7
2018-Apr-23 20:00N 51°53' E 004°19'4 7.2
2018-Apr-23 19:30N 51°51' E 004°23'4 8.0
2018-Apr-23 19:00N 51°50' E 004°29'4 7.9
2018-Apr-23 18:30N 51°48' E 004°35'7 3.3
2018-Apr-23 16:19N 51°41' E 004°36'0 0.0
2018-Apr-23 16:00N 51°41' E 004°36'0 0.0
2018-Apr-23 15:27N 51°41' E 004°36'0 0.0
2018-Apr-23 14:59N 51°41' E 004°36'0 0.0
2018-Apr-23 14:23N 51°41' E 004°36'0 0.0
2018-Apr-23 13:59N 51°41' E 004°36'0 0.0
2018-Apr-23 13:29N 51°41' E 004°36'0 0.0
2018-Apr-23 12:58N 51°41' E 004°36'0 0.0
2018-Apr-23 12:30N 51°41' E 004°36'0 0.0
2018-Apr-23 12:00N 51°41' E 004°36'0 0.0
2018-Apr-23 11:28N 51°41' E 004°36'0 0.0
2018-Apr-23 11:00N 51°41' E 004°36'0 0.0
2018-Apr-23 10:30N 51°41' E 004°36'0 0.0
2018-Apr-23 09:57N 51°41' E 004°36'0 0.0
2018-Apr-23 09:30N 51°41' E 004°36'0 0.0
2018-Apr-23 09:00N 51°41' E 004°36'0 0.0
2018-Apr-23 08:30N 51°41' E 004°36'0 0.0
2018-Apr-23 07:59N 51°41' E 004°36'0 0.0
2018-Apr-23 07:29N 51°41' E 004°36'0 0.0
2018-Apr-23 06:58N 51°41' E 004°36'0 0.0
2018-Apr-23 06:29N 51°41' E 004°36'0 0.0
2018-Apr-23 06:00N 51°41' E 004°36'0 0.0
2018-Apr-23 05:30N 51°41' E 004°36'0 0.0
2018-Apr-23 05:00N 51°41' E 004°36'0 0.0
2018-Apr-23 04:29N 51°41' E 004°36'0 0.0
2018-Apr-23 04:00N 51°41' E 004°36'0 0.0
2018-Apr-23 03:29N 51°41' E 004°36'0 0.0
2018-Apr-23 02:59N 51°41' E 004°36'0 0.0
2018-Apr-23 02:30N 51°41' E 004°36'0 0.0
2018-Apr-23 01:56N 51°41' E 004°36'0 0.0
2018-Apr-23 01:30N 51°41' E 004°36'0 0.0
2018-Apr-23 01:00N 51°41' E 004°36'0 0.0
2018-Apr-23 00:30N 51°41' E 004°36'0 0.0
2018-Apr-22 23:59N 51°41' E 004°36'0 0.0
2018-Apr-22 23:30N 51°41' E 004°36'0 0.0
2018-Apr-22 23:00N 51°41' E 004°36'0 0.0
2018-Apr-22 22:29N 51°41' E 004°36'0 0.0
2018-Apr-22 22:00N 51°41' E 004°36'0 0.0
2018-Apr-22 21:30N 51°41' E 004°36'0 0.0
2018-Apr-22 21:00N 51°41' E 004°36'0 0.0
2018-Apr-22 20:30N 51°41' E 004°36'0 0.0
2018-Apr-22 19:59N 51°41' E 004°36'0 0.0
2018-Apr-22 19:30N 51°41' E 004°36'0 0.0
2018-Apr-22 19:00N 51°41' E 004°36'0 0.0
2018-Apr-22 18:28N 51°41' E 004°36'0 0.0
2018-Apr-22 17:57N 51°41' E 004°36'0 0.0
2018-Apr-22 17:30N 51°41' E 004°36'0 0.0
2018-Apr-22 17:00N 51°41' E 004°36'0 0.0
2018-Apr-22 16:30N 51°41' E 004°36'0 0.0
2018-Apr-22 16:00N 51°41' E 004°36'0 0.0
2018-Apr-22 15:27N 51°41' E 004°36'0 0.0
2018-Apr-22 15:00N 51°41' E 004°36'0 0.0
2018-Apr-22 14:30N 51°41' E 004°36'0 0.0
2018-Apr-22 14:00N 51°41' E 004°36'0 0.0
2018-Apr-22 13:30N 51°41' E 004°36'0 0.0
2018-Apr-22 13:00N 51°41' E 004°36'0 0.0
2018-Apr-22 12:30N 51°41' E 004°36'0 0.0
2018-Apr-22 12:00N 51°41' E 004°36'0 0.0
2018-Apr-22 11:29N 51°41' E 004°36'0 0.0
2018-Apr-22 11:00N 51°41' E 004°36'0 0.0
2018-Apr-22 10:30N 51°41' E 004°36'0 0.0
2018-Apr-22 09:59N 51°41' E 004°36'0 0.0
2018-Apr-22 09:30N 51°41' E 004°36'0 0.0
2018-Apr-22 08:57N 51°41' E 004°36'0 0.0
2018-Apr-22 08:29N 51°41' E 004°36'0 0.0
2018-Apr-22 08:00N 51°41' E 004°36'0 0.0
2018-Apr-22 07:30N 51°41' E 004°36'0 0.0
2018-Apr-22 07:00N 51°41' E 004°36'0 0.0
2018-Apr-22 06:30N 51°41' E 004°36'0 0.0
2018-Apr-22 06:00N 51°41' E 004°36'0 0.0
2018-Apr-22 05:30N 51°41' E 004°36'0 0.0
2018-Apr-22 05:00N 51°41' E 004°36'0 0.0
2018-Apr-22 04:30N 51°41' E 004°36'0 0.0
2018-Apr-22 04:00N 51°41' E 004°36'0 0.0
2018-Apr-22 03:30N 51°41' E 004°36'0 0.0
2018-Apr-22 03:00N 51°41' E 004°36'0 0.0
2018-Apr-22 02:30N 51°41' E 004°36'0 0.0
2018-Apr-22 02:00N 51°41' E 004°36'0 0.0
2018-Apr-22 01:28N 51°41' E 004°36'0 0.0
2018-Apr-22 01:00N 51°41' E 004°36'0 0.0
2018-Apr-22 00:26N 51°41' E 004°36'0 0.0
2018-Apr-22 00:00N 51°41' E 004°36'0 0.0
2018-Apr-21 23:30N 51°41' E 004°36'0 0.0
2018-Apr-21 23:00N 51°41' E 004°36'0 0.0
2018-Apr-21 22:30N 51°41' E 004°36'0 0.0
2018-Apr-21 21:59N 51°41' E 004°36'0 0.0
2018-Apr-21 21:30N 51°41' E 004°36'0 0.0
2018-Apr-21 21:00N 51°41' E 004°36'0 0.0
2018-Apr-21 20:30N 51°41' E 004°36'0 0.0
2018-Apr-21 20:00N 51°41' E 004°36'0 0.0
2018-Apr-21 19:30N 51°41' E 004°36'0 0.0
2018-Apr-21 19:00N 51°41' E 004°36'0 0.0
2018-Apr-21 18:24N 51°41' E 004°36'0 0.0
2018-Apr-21 18:00N 51°41' E 004°36'0 0.0
2018-Apr-21 17:28N 51°41' E 004°36'0 0.0
2018-Apr-21 17:00N 51°41' E 004°36'0 0.0
2018-Apr-21 16:30N 51°41' E 004°36'0 0.0
2018-Apr-21 15:59N 51°41' E 004°36'0 0.0
2018-Apr-21 15:30N 51°41' E 004°36'0 0.0
2018-Apr-21 14:57N 51°41' E 004°36'0 0.0
2018-Apr-21 14:30N 51°41' E 004°36'0 0.0
2018-Apr-21 14:00N 51°41' E 004°36'0 0.0
2018-Apr-21 13:30N 51°41' E 004°36'0 0.0
2018-Apr-21 13:00N 51°41' E 004°36'0 0.0
2018-Apr-21 12:28N 51°41' E 004°36'0 0.1
2018-Apr-21 11:56N 51°41' E 004°36'0 0.0
2018-Apr-21 11:29N 51°41' E 004°36'0 0.0
2018-Apr-21 10:59N 51°41' E 004°36'0 0.0
2018-Apr-21 10:29N 51°41' E 004°36'0 0.0
2018-Apr-21 10:00N 51°41' E 004°36'0 0.0
2018-Apr-21 09:25N 51°41' E 004°36'0 0.0
2018-Apr-21 08:57N 51°41' E 004°36'0 0.0
2018-Apr-21 08:30N 51°41' E 004°36'0 0.0
2018-Apr-21 08:00N 51°41' E 004°36'0 0.0
2018-Apr-21 07:30N 51°41' E 004°36'0 0.0
2018-Apr-21 07:00N 51°41' E 004°36'0 0.0
2018-Apr-21 06:28N 51°41' E 004°36'0 0.0
2018-Apr-21 06:00N 51°41' E 004°36'0 0.0
2018-Apr-21 05:30N 51°41' E 004°36'0 0.0
2018-Apr-21 05:00N 51°41' E 004°36'0 0.0
2018-Apr-21 04:29N 51°41' E 004°36'0 0.0
2018-Apr-21 03:58N 51°41' E 004°36'0 0.0
2018-Apr-21 03:30N 51°41' E 004°36'0 0.0
2018-Apr-21 02:51N 51°41' E 004°36'0 0.0
2018-Apr-21 02:10N 51°41' E 004°36'0 0.0
2018-Apr-21 01:50N 51°41' E 004°36'0 0.0
2018-Apr-21 01:25N 51°41' E 004°36'0 0.0
2018-Apr-21 01:00N 51°41' E 004°36'0 0.0
2018-Apr-21 00:27N 51°41' E 004°36'0 0.0
2018-Apr-20 23:57N 51°41' E 004°36'0 0.0
2018-Apr-20 23:30N 51°41' E 004°36'0 0.0
2018-Apr-20 23:00N 51°41' E 004°36'0 0.0
2018-Apr-20 22:29N 51°41' E 004°36'0 0.0
2018-Apr-20 22:00N 51°41' E 004°36'0 0.0
2018-Apr-20 21:30N 51°41' E 004°36'0 0.0
2018-Apr-20 21:00N 51°41' E 004°36'0 0.0
2018-Apr-20 20:30N 51°41' E 004°36'0 0.0
2018-Apr-20 20:00N 51°41' E 004°36'0 0.0
2018-Apr-20 19:30N 51°41' E 004°36'0 0.0
2018-Apr-20 19:00N 51°41' E 004°36'0 0.0
2018-Apr-20 18:30N 51°41' E 004°36'0 0.0
2018-Apr-20 17:59N 51°41' E 004°36'0 0.0
2018-Apr-20 17:30N 51°41' E 004°36'0 0.0
2018-Apr-20 16:59N 51°41' E 004°36'0 0.0
2018-Apr-20 16:30N 51°41' E 004°36'0 0.0
2018-Apr-20 16:00N 51°41' E 004°36'0 0.0
2018-Apr-20 15:29N 51°41' E 004°36'0 0.0
2018-Apr-20 15:00N 51°41' E 004°36'0 0.0
2018-Apr-20 14:29N 51°41' E 004°36'0 0.0
2018-Apr-20 13:59N 51°41' E 004°36'0 0.0
2018-Apr-20 13:30N 51°41' E 004°36'0 0.0
2018-Apr-20 12:59N 51°41' E 004°36'0 0.0
2018-Apr-20 12:30N 51°41' E 004°36'0 0.0
2018-Apr-20 11:59N 51°41' E 004°36'0 0.0
2018-Apr-20 11:29N 51°41' E 004°36'0 0.0
2018-Apr-20 11:00N 51°41' E 004°36'0 0.0
2018-Apr-20 10:29N 51°41' E 004°36'0 0.0
2018-Apr-20 10:00N 51°41' E 004°36'0 0.0
2018-Apr-20 09:30N 51°41' E 004°36'0 0.0
2018-Apr-20 09:00N 51°41' E 004°36'0 0.0
2018-Apr-20 08:30N 51°41' E 004°36'0 0.0
2018-Apr-20 08:00N 51°41' E 004°36'0 0.0
2018-Apr-20 07:30N 51°41' E 004°36'0 0.0
2018-Apr-20 07:00N 51°41' E 004°36'0 0.0
2018-Apr-20 06:30N 51°41' E 004°36'0 0.0
2018-Apr-20 06:00N 51°41' E 004°36'0 0.0
2018-Apr-20 05:30N 51°41' E 004°36'0 0.0
2018-Apr-20 05:00N 51°41' E 004°36'0 0.0
2018-Apr-20 04:30N 51°41' E 004°36'0 0.0
2018-Apr-20 03:57N 51°41' E 004°36'0 0.0
2018-Apr-20 03:30N 51°41' E 004°36'0 0.0
2018-Apr-20 03:00N 51°41' E 004°36'0 0.0
2018-Apr-20 02:30N 51°41' E 004°36'0 0.0
2018-Apr-20 01:59N 51°41' E 004°36'0 0.0
2018-Apr-20 01:30N 51°41' E 004°36'0 0.0
2018-Apr-20 01:00N 51°41' E 004°36'0 0.0
2018-Apr-20 00:30N 51°41' E 004°36'0 0.0
2018-Apr-20 00:00N 51°41' E 004°36'0 0.0
2018-Apr-19 23:30N 51°41' E 004°36'0 0.0
2018-Apr-19 23:00N 51°41' E 004°36'0 0.0
2018-Apr-19 22:29N 51°41' E 004°36'0 0.0
2018-Apr-19 22:00N 51°41' E 004°36'0 0.0
2018-Apr-19 21:30N 51°41' E 004°36'0 0.0
2018-Apr-19 21:00N 51°41' E 004°36'0 0.0
2018-Apr-19 20:30N 51°41' E 004°36'0 0.0
2018-Apr-19 20:00N 51°41' E 004°36'0 0.0
2018-Apr-19 19:30N 51°41' E 004°36'0 0.0
2018-Apr-19 19:00N 51°41' E 004°36'0 0.0
2018-Apr-19 18:30N 51°41' E 004°36'0 0.0
2018-Apr-19 18:00N 51°41' E 004°36'0 0.0
2018-Apr-19 17:30N 51°41' E 004°36'0 0.0
2018-Apr-19 17:00N 51°41' E 004°36'0 0.0
2018-Apr-19 16:30N 51°41' E 004°36'0 0.0
2018-Apr-19 16:00N 51°41' E 004°36'0 0.0
2018-Apr-19 15:25N 51°41' E 004°36'0 0.0
2018-Apr-19 14:50N 51°41' E 004°36'0 0.0
2018-Apr-19 14:24N 51°41' E 004°36'0 0.0
2018-Apr-19 14:00N 51°41' E 004°36'0 0.0
2018-Apr-19 13:20N 51°41' E 004°36'0 0.0
2018-Apr-19 13:00N 51°41' E 004°36'1 1.2
2018-Apr-19 12:30N 51°42' E 004°35'3 6.1
2018-Apr-19 12:00N 51°44' E 004°38'3 5.7
2018-Apr-19 11:30N 51°47' E 004°37'3 5.1
2018-Apr-19 11:00N 51°49' E 004°34'2 4.4
2018-Apr-19 10:30N 51°50' E 004°31'3 5.3
2018-Apr-19 10:00N 51°50' E 004°27'2 4.9
2018-Apr-19 09:30N 51°51' E 004°23'3 5.1
2018-Apr-19 09:00N 51°52' E 004°20'2 4.8
2018-Apr-19 08:30N 51°54' E 004°17'2 3.5
2018-Apr-19 08:00N 51°55' E 004°15'0 0.0
2018-Apr-19 07:29N 51°55' E 004°15'0 0.0
2018-Apr-19 06:59N 51°55' E 004°15'0 0.0
2018-Apr-19 06:23N 51°55' E 004°15'0 0.0
2018-Apr-19 05:56N 51°55' E 004°15'0 0.0
2018-Apr-19 05:26N 51°55' E 004°15'0 0.7
2018-Apr-19 05:00N 51°55' E 004°15'0 0.0
2018-Apr-19 04:30N 51°55' E 004°15'0 0.0
2018-Apr-19 03:59N 51°55' E 004°15'0 0.0
2018-Apr-19 03:30N 51°55' E 004°15'0 0.0
2018-Apr-19 03:00N 51°55' E 004°15'0 0.0
2018-Apr-19 02:30N 51°55' E 004°15'0 0.0
2018-Apr-19 01:59N 51°55' E 004°15'0 0.0
2018-Apr-19 01:29N 51°55' E 004°15'0 0.0
2018-Apr-19 00:59N 51°55' E 004°15'0 0.0
2018-Apr-19 00:30N 51°55' E 004°15'0 0.0
2018-Apr-18 23:56N 51°55' E 004°15'0 0.0
2018-Apr-18 23:30N 51°55' E 004°15'0 0.0
2018-Apr-18 23:00N 51°55' E 004°15'0 0.0
2018-Apr-18 22:30N 51°55' E 004°15'0 0.0
2018-Apr-18 22:00N 51°55' E 004°15'0 0.0
2018-Apr-18 21:30N 51°55' E 004°15'0 0.0
2018-Apr-18 21:00N 51°55' E 004°15'0 0.0
2018-Apr-18 20:30N 51°55' E 004°15'0 0.0
2018-Apr-18 20:00N 51°55' E 004°15'0 0.0
2018-Apr-18 19:30N 51°55' E 004°15'0 0.0
2018-Apr-18 19:00N 51°55' E 004°15'0 0.0
2018-Apr-18 18:30N 51°55' E 004°15'0 0.0
2018-Apr-18 17:59N 51°55' E 004°15'0 0.0
2018-Apr-18 17:30N 51°55' E 004°15'0 0.0
2018-Apr-18 17:00N 51°55' E 004°15'0 0.1
2018-Apr-18 16:30N 51°55' E 004°15'0 0.0
2018-Apr-18 16:00N 51°55' E 004°15'0 0.0
2018-Apr-18 15:30N 51°55' E 004°15'0 0.0
2018-Apr-18 15:00N 51°55' E 004°15'0 0.0
2018-Apr-18 14:30N 51°55' E 004°15'0 0.0
2018-Apr-18 14:00N 51°55' E 004°15'0 0.0
2018-Apr-18 13:30N 51°55' E 004°15'0 0.0
2018-Apr-18 13:00N 51°55' E 004°15'0 0.0
2018-Apr-18 12:30N 51°55' E 004°15'0 0.0
2018-Apr-18 12:00N 51°55' E 004°15'0 0.0
2018-Apr-18 11:30N 51°55' E 004°15'0 0.0
2018-Apr-18 11:00N 51°55' E 004°15'0 0.0
2018-Apr-18 10:30N 51°55' E 004°15'0 0.0
2018-Apr-18 10:00N 51°55' E 004°15'0 0.0
2018-Apr-18 09:30N 51°55' E 004°15'0 0.0
2018-Apr-18 09:00N 51°55' E 004°15'0 0.0
2018-Apr-18 08:30N 51°55' E 004°15'0 0.0
2018-Apr-18 08:00N 51°55' E 004°15'0 0.0
2018-Apr-18 07:30N 51°55' E 004°15'0 0.0
2018-Apr-18 07:00N 51°55' E 004°15'0 0.0
2018-Apr-18 06:30N 51°55' E 004°15'0 0.0
2018-Apr-18 06:00N 51°55' E 004°15'0 0.0
2018-Apr-18 05:30N 51°55' E 004°15'0 0.0
2018-Apr-18 05:00N 51°55' E 004°15'0 0.0
2018-Apr-18 04:30N 51°55' E 004°15'0 0.0
2018-Apr-18 04:00N 51°55' E 004°15'0 0.0
2018-Apr-18 03:30N 51°55' E 004°15'0 0.0
2018-Apr-18 02:59N 51°55' E 004°15'0 0.0
2018-Apr-18 02:30N 51°55' E 004°15'0 0.0
2018-Apr-18 02:00N 51°55' E 004°15'0 0.0
2018-Apr-18 01:30N 51°55' E 004°15'0 0.0
2018-Apr-18 01:00N 51°55' E 004°15'0 0.0
2018-Apr-18 00:30N 51°55' E 004°15'0 0.0
2018-Apr-18 00:00N 51°55' E 004°15'0 0.0
2018-Apr-17 23:30N 51°55' E 004°15'0 0.0
2018-Apr-17 23:00N 51°55' E 004°15'0 0.0
2018-Apr-17 22:30N 51°55' E 004°15'0 0.0
2018-Apr-17 22:00N 51°55' E 004°15'0 0.0
2018-Apr-17 21:30N 51°55' E 004°15'0 0.0
2018-Apr-17 21:00N 51°55' E 004°15'0 0.0
2018-Apr-17 20:30N 51°55' E 004°15'0 0.0
2018-Apr-17 20:00N 51°55' E 004°15'0 0.0
2018-Apr-17 19:30N 51°55' E 004°15'0 0.0
2018-Apr-17 19:00N 51°55' E 004°15'0 0.0
2018-Apr-17 18:30N 51°55' E 004°15'0 0.0
2018-Apr-17 18:00N 51°55' E 004°15'0 0.0
2018-Apr-17 17:30N 51°55' E 004°15'0 0.0
2018-Apr-17 17:00N 51°55' E 004°15'0 0.0
2018-Apr-17 16:30N 51°55' E 004°15'0 0.0
2018-Apr-17 16:00N 51°55' E 004°15'0 0.0
2018-Apr-17 15:30N 51°55' E 004°15'0 0.0
2018-Apr-17 15:00N 51°55' E 004°15'0 0.0
2018-Apr-17 14:30N 51°55' E 004°15'0 0.0
2018-Apr-17 14:00N 51°55' E 004°15'0 0.0
2018-Apr-17 13:30N 51°55' E 004°15'0 0.0
2018-Apr-17 13:00N 51°55' E 004°15'0 0.0
2018-Apr-17 12:30N 51°55' E 004°15'0 0.0
2018-Apr-17 12:00N 51°55' E 004°15'0 0.0
2018-Apr-17 11:30N 51°55' E 004°15'0 0.0
2018-Apr-17 11:00N 51°55' E 004°15'0 0.0
2018-Apr-17 10:30N 51°55' E 004°15'0 0.0
2018-Apr-17 10:00N 51°55' E 004°15'0 0.0
2018-Apr-17 09:30N 51°55' E 004°15'0 0.0
2018-Apr-17 09:00N 51°55' E 004°15'0 0.0
2018-Apr-17 08:30N 51°55' E 004°15'0 0.0
2018-Apr-17 08:00N 51°55' E 004°15'0 0.0
2018-Apr-17 07:30N 51°55' E 004°15'0 0.0
2018-Apr-17 07:00N 51°55' E 004°15'0 0.0
2018-Apr-17 06:30N 51°55' E 004°15'0 0.0
2018-Apr-17 06:00N 51°55' E 004°15'0 0.0
2018-Apr-17 05:30N 51°55' E 004°15'0 0.0
2018-Apr-17 05:00N 51°55' E 004°15'0 0.0
2018-Apr-17 04:30N 51°55' E 004°15'0 0.0
2018-Apr-17 04:00N 51°55' E 004°15'0 0.0
2018-Apr-17 03:30N 51°55' E 004°15'0 0.0
2018-Apr-17 03:00N 51°55' E 004°15'0 0.0
2018-Apr-17 02:30N 51°55' E 004°15'0 0.0
2018-Apr-17 02:00N 51°55' E 004°15'0 0.0
2018-Apr-17 01:30N 51°55' E 004°15'0 0.0
2018-Apr-17 01:00N 51°55' E 004°15'0 0.0
2018-Apr-17 00:30N 51°55' E 004°15'0 0.0
2018-Apr-17 00:00N 51°55' E 004°15'0 0.0
2018-Apr-16 23:30N 51°55' E 004°15'0 0.0
2018-Apr-16 23:00N 51°55' E 004°15'0 0.0
2018-Apr-16 22:30N 51°55' E 004°15'0 0.0
2018-Apr-16 22:00N 51°55' E 004°15'0 0.0
2018-Apr-16 21:30N 51°55' E 004°15'0 0.0
2018-Apr-16 21:00N 51°55' E 004°15'0 0.0
2018-Apr-16 20:30N 51°55' E 004°15'0 0.0
2018-Apr-16 20:00N 51°55' E 004°15'0 0.0
2018-Apr-16 19:30N 51°55' E 004°15'0 0.0
2018-Apr-16 19:00N 51°55' E 004°15'0 0.0
2018-Apr-16 18:30N 51°55' E 004°15'0 0.0
2018-Apr-16 18:00N 51°55' E 004°15'0 0.0
2018-Apr-16 17:30N 51°55' E 004°15'0 0.0
2018-Apr-16 17:00N 51°55' E 004°15'0 0.0
2018-Apr-16 16:30N 51°55' E 004°15'0 0.0
2018-Apr-16 16:00N 51°55' E 004°15'0 0.0
2018-Apr-16 15:30N 51°55' E 004°15'0 0.0
2018-Apr-16 15:00N 51°55' E 004°15'0 0.0
2018-Apr-16 14:30N 51°55' E 004°15'0 0.0
2018-Apr-16 14:00N 51°55' E 004°15'0 0.0
2018-Apr-16 13:30N 51°55' E 004°15'0 0.0
2018-Apr-16 13:00N 51°55' E 004°15'0 0.0
2018-Apr-16 12:30N 51°55' E 004°15'0 0.0
2018-Apr-16 12:00N 51°55' E 004°15'0 0.0
2018-Apr-16 11:30N 51°55' E 004°15'0 0.0
2018-Apr-16 11:00N 51°55' E 004°15'0 0.0
2018-Apr-16 10:30N 51°55' E 004°15'0 0.0
2018-Apr-16 10:00N 51°55' E 004°15'0 0.0
2018-Apr-16 09:28N 51°55' E 004°15'0 0.0
2018-Apr-16 09:00N 51°55' E 004°15'0 0.0
2018-Apr-16 08:30N 51°55' E 004°15'0 0.0
2018-Apr-16 08:00N 51°55' E 004°15'0 0.0
2018-Apr-16 07:30N 51°55' E 004°15'0 0.0
2018-Apr-16 07:00N 51°55' E 004°15'0 0.0
2018-Apr-16 06:30N 51°55' E 004°15'0 0.0
2018-Apr-16 06:00N 51°55' E 004°15'0 0.0
2018-Apr-16 05:30N 51°55' E 004°15'0 0.0
2018-Apr-16 05:00N 51°55' E 004°15'0 0.0
2018-Apr-16 04:30N 51°55' E 004°15'0 0.0
2018-Apr-16 04:00N 51°55' E 004°15'0 0.0
2018-Apr-16 03:30N 51°55' E 004°15'0 0.0
2018-Apr-16 03:00N 51°55' E 004°15'0 0.0
2018-Apr-16 02:30N 51°55' E 004°15'0 0.0
2018-Apr-16 02:00N 51°55' E 004°15'0 0.0
2018-Apr-16 01:30N 51°55' E 004°15'0 0.0
2018-Apr-16 01:00N 51°55' E 004°15'0 0.0
2018-Apr-16 00:30N 51°55' E 004°15'0 0.0
2018-Apr-16 00:00N 51°55' E 004°15'0 0.0
2018-Apr-15 23:30N 51°55' E 004°15'0 0.0
2018-Apr-15 23:00N 51°55' E 004°15'0 0.0
2018-Apr-15 22:30N 51°55' E 004°15'0 0.0
2018-Apr-15 22:00N 51°55' E 004°15'0 0.0
2018-Apr-15 21:30N 51°55' E 004°15'0 0.0
2018-Apr-15 21:00N 51°55' E 004°15'0 0.0
2018-Apr-15 20:30N 51°55' E 004°15'0 0.0
2018-Apr-15 20:00N 51°55' E 004°15'0 0.0
2018-Apr-15 19:30N 51°55' E 004°15'0 0.0
2018-Apr-15 19:00N 51°55' E 004°15'0 0.0
2018-Apr-15 18:30N 51°55' E 004°15'0 0.0
2018-Apr-15 18:00N 51°55' E 004°15'0 0.0
2018-Apr-15 17:30N 51°55' E 004°15'0 0.0
2018-Apr-15 17:00N 51°55' E 004°15'0 0.0
2018-Apr-15 16:30N 51°55' E 004°15'0 0.0
2018-Apr-15 16:00N 51°55' E 004°15'0 0.0
2018-Apr-15 15:29N 51°55' E 004°15'0 0.0
2018-Apr-15 15:00N 51°55' E 004°15'0 0.0
2018-Apr-15 14:30N 51°55' E 004°15'0 0.0
2018-Apr-15 14:00N 51°55' E 004°15'0 0.0
2018-Apr-15 13:30N 51°55' E 004°15'0 0.0
2018-Apr-15 13:00N 51°55' E 004°15'0 0.0
2018-Apr-15 12:30N 51°55' E 004°15'0 0.0
2018-Apr-15 12:00N 51°55' E 004°15'0 0.0
2018-Apr-15 11:30N 51°55' E 004°15'0 0.0
2018-Apr-15 11:00N 51°55' E 004°15'0 0.0
2018-Apr-15 10:30N 51°55' E 004°15'0 0.0
2018-Apr-15 10:00N 51°55' E 004°15'0 0.0
2018-Apr-15 09:30N 51°55' E 004°15'0 0.0
2018-Apr-15 09:00N 51°55' E 004°15'0 0.0
2018-Apr-15 08:30N 51°55' E 004°15'0 0.0
2018-Apr-15 08:00N 51°55' E 004°15'0 0.0
2018-Apr-15 07:30N 51°55' E 004°15'0 0.0
2018-Apr-15 07:00N 51°55' E 004°15'0 0.0
2018-Apr-15 06:30N 51°55' E 004°15'  
Track history (hours):
 
Tides and Currents Weather Stations Pressure Air Temp Water Temp Dewpoint Dewpoint Depression Visibility Wind Speed Wind Dir Waves Ship Positions

Martine P

Last reported at 2018-Apr-25 06:18 UTC. Time now 2018-Apr-25 07:01 UTC.
Position N 52°13' E 003°25'.

Length 27 m; draft 3.2 m.

Type: Tug. MMSI: 235091541.

Date/timePositionNaut miles runAvg speedWind from/ knotsBaromVisibWave heightAir tempDewpointWater temp
2018-Apr-25 06:18N 52°13' E 003°25'2 6.6
2018-Apr-25 05:59N 52°12' E 003°27'3 6.7
2018-Apr-25 05:30N 52°09' E 003°31'4 6.9
2018-Apr-25 05:00N 52°08' E 003°36'3 7.1
2018-Apr-25 04:30N 52°06' E 003°40'3 6.9
2018-Apr-25 04:00N 52°04' E 003°46'3 6.5
2018-Apr-25 03:29N 52°03' E 003°51'3 6.8
2018-Apr-25 03:00N 52°02' E 003°55'3 6.2
2018-Apr-25 02:30N 52°01' E 004°00'4 7.0
2018-Apr-25 02:00N 51°59' E 004°05'4 7.5
2018-Apr-25 01:30N 51°57' E 004°10'3 6.6
2018-Apr-25 00:59N 51°55' E 004°15'0 0.1
2018-Apr-25 00:29N 51°55' E 004°15'0 0.0
2018-Apr-24 23:56N 51°55' E 004°15'0 0.0
2018-Apr-24 23:29N 51°55' E 004°15'0 0.0
2018-Apr-24 22:59N 51°55' E 004°15'0 0.0
2018-Apr-24 22:26N 51°55' E 004°15'0 0.0
2018-Apr-24 21:56N 51°55' E 004°15'0 0.0
2018-Apr-24 21:29N 51°55' E 004°15'0 0.0
2018-Apr-24 20:56N 51°55' E 004°15'0 0.0
2018-Apr-24 20:29N 51°55' E 004°15'0 0.0
2018-Apr-24 19:59N 51°55' E 004°15'0 0.0
2018-Apr-24 19:23N 51°55' E 004°15'0 0.0
2018-Apr-24 18:59N 51°55' E 004°15'0 0.0
2018-Apr-24 18:26N 51°55' E 004°15'0 0.0
2018-Apr-24 17:56N 51°55' E 004°15'0 0.0
2018-Apr-24 17:20N 51°55' E 004°15'0 0.0
2018-Apr-24 16:59N 51°55' E 004°15'0 0.0
2018-Apr-24 16:23N 51°55' E 004°15'0 0.0
2018-Apr-24 15:59N 51°55' E 004°15'0 0.0
2018-Apr-24 15:29N 51°55' E 004°15'0 0.0
2018-Apr-24 14:41N 51°55' E 004°15'0 0.0
2018-Apr-24 14:26N 51°55' E 004°15'0 0.0
2018-Apr-24 13:59N 51°55' E 004°15'0 0.0
2018-Apr-24 13:29N 51°55' E 004°15'0 0.0
2018-Apr-24 12:59N 51°55' E 004°15'0 0.0
2018-Apr-24 12:26N 51°55' E 004°15'0 0.0
2018-Apr-24 11:56N 51°55' E 004°15'0 0.0
2018-Apr-24 11:20N 51°55' E 004°15'0 0.0
2018-Apr-24 10:56N 51°55' E 004°15'0 0.0
2018-Apr-24 10:29N 51°55' E 004°15'0 0.0
2018-Apr-24 09:59N 51°55' E 004°15'0 0.0
2018-Apr-24 09:29N 51°55' E 004°15'0 0.0
2018-Apr-24 08:56N 51°55' E 004°15'0 0.0
2018-Apr-24 08:23N 51°55' E 004°15'0 0.0
2018-Apr-24 07:59N 51°55' E 004°15'0 0.0
2018-Apr-24 07:29N 51°55' E 004°15'0 0.0
2018-Apr-24 06:59N 51°55' E 004°15'0 0.0
2018-Apr-24 06:23N 51°55' E 004°15'0 0.0
2018-Apr-24 04:14N 51°55' E 004°15'0 0.1
2018-Apr-24 03:59N 51°55' E 004°15'0 0.0
2018-Apr-24 01:20N 51°55' E 004°15'0 0.0
2018-Apr-24 00:20N 51°55' E 004°15'0 0.0
2018-Apr-23 23:50N 51°55' E 004°15'0 0.0
2018-Apr-23 23:26N 51°55' E 004°15'0 0.0
2018-Apr-23 21:38N 51°55' E 004°15'0 0.0
2018-Apr-23 20:44N 51°55' E 004°15'0 0.5
2018-Apr-23 20:29N 51°55' E 004°15'3 6.7
2018-Apr-23 20:00N 51°53' E 004°19'4 7.2
2018-Apr-23 19:30N 51°51' E 004°23'4 8.0
2018-Apr-23 19:00N 51°50' E 004°29'4 7.9
2018-Apr-23 18:30N 51°48' E 004°35'7 3.3
2018-Apr-23 16:19N 51°41' E 004°36'0 0.0
2018-Apr-23 16:00N 51°41' E 004°36'0 0.0
2018-Apr-23 15:27N 51°41' E 004°36'0 0.0
2018-Apr-23 14:59N 51°41' E 004°36'0 0.0
2018-Apr-23 14:23N 51°41' E 004°36'0 0.0
2018-Apr-23 13:59N 51°41' E 004°36'0 0.0
2018-Apr-23 13:29N 51°41' E 004°36'0 0.0
2018-Apr-23 12:58N 51°41' E 004°36'0 0.0
2018-Apr-23 12:30N 51°41' E 004°36'0 0.0
2018-Apr-23 12:00N 51°41' E 004°36'0 0.0
2018-Apr-23 11:28N 51°41' E 004°36'0 0.0
2018-Apr-23 11:00N 51°41' E 004°36'0 0.0
2018-Apr-23 10:30N 51°41' E 004°36'0 0.0
2018-Apr-23 09:57N 51°41' E 004°36'0 0.0
2018-Apr-23 09:30N 51°41' E 004°36'0 0.0
2018-Apr-23 09:00N 51°41' E 004°36'0 0.0
2018-Apr-23 08:30N 51°41' E 004°36'0 0.0
2018-Apr-23 07:59N 51°41' E 004°36'0 0.0
2018-Apr-23 07:29N 51°41' E 004°36'0 0.0
2018-Apr-23 06:58N 51°41' E 004°36'0 0.0
2018-Apr-23 06:29N 51°41' E 004°36'0 0.0
2018-Apr-23 06:00N 51°41' E 004°36'0 0.0
2018-Apr-23 05:30N 51°41' E 004°36'0 0.0
2018-Apr-23 05:00N 51°41' E 004°36'0 0.0
2018-Apr-23 04:29N 51°41' E 004°36'0 0.0
2018-Apr-23 04:00N 51°41' E 004°36'0 0.0
2018-Apr-23 03:29N 51°41' E 004°36'0 0.0
2018-Apr-23 02:59N 51°41' E 004°36'0 0.0
2018-Apr-23 02:30N 51°41' E 004°36'0 0.0
2018-Apr-23 01:56N 51°41' E 004°36'0 0.0
2018-Apr-23 01:30N 51°41' E 004°36'0 0.0
2018-Apr-23 01:00N 51°41' E 004°36'0 0.0
2018-Apr-23 00:30N 51°41' E 004°36'0 0.0
2018-Apr-22 23:59N 51°41' E 004°36'0 0.0
2018-Apr-22 23:30N 51°41' E 004°36'0 0.0
2018-Apr-22 23:00N 51°41' E 004°36'0 0.0
2018-Apr-22 22:29N 51°41' E 004°36'0 0.0
2018-Apr-22 22:00N 51°41' E 004°36'0 0.0
2018-Apr-22 21:30N 51°41' E 004°36'0 0.0
2018-Apr-22 21:00N 51°41' E 004°36'0 0.0
2018-Apr-22 20:30N 51°41' E 004°36'0 0.0
2018-Apr-22 19:59N 51°41' E 004°36'0 0.0
2018-Apr-22 19:30N 51°41' E 004°36'0 0.0
2018-Apr-22 19:00N 51°41' E 004°36'0 0.0
2018-Apr-22 18:28N 51°41' E 004°36'0 0.0
2018-Apr-22 17:57N 51°41' E 004°36'0 0.0
2018-Apr-22 17:30N 51°41' E 004°36'0 0.0
2018-Apr-22 17:00N 51°41' E 004°36'0 0.0
2018-Apr-22 16:30N 51°41' E 004°36'0 0.0
2018-Apr-22 16:00N 51°41' E 004°36'0 0.0
2018-Apr-22 15:27N 51°41' E 004°36'0 0.0
2018-Apr-22 15:00N 51°41' E 004°36'0 0.0
2018-Apr-22 14:30N 51°41' E 004°36'0 0.0
2018-Apr-22 14:00N 51°41' E 004°36'0 0.0
2018-Apr-22 13:30N 51°41' E 004°36'0 0.0
2018-Apr-22 13:00N 51°41' E 004°36'0 0.0
2018-Apr-22 12:30N 51°41' E 004°36'0 0.0
2018-Apr-22 12:00N 51°41' E 004°36'0 0.0
2018-Apr-22 11:29N 51°41' E 004°36'0 0.0
2018-Apr-22 11:00N 51°41' E 004°36'0 0.0
2018-Apr-22 10:30N 51°41' E 004°36'0 0.0
2018-Apr-22 09:59N 51°41' E 004°36'0 0.0
2018-Apr-22 09:30N 51°41' E 004°36'0 0.0
2018-Apr-22 08:57N 51°41' E 004°36'0 0.0
2018-Apr-22 08:29N 51°41' E 004°36'0 0.0
2018-Apr-22 08:00N 51°41' E 004°36'0 0.0
2018-Apr-22 07:30N 51°41' E 004°36'0 0.0
2018-Apr-22 07:00N 51°41' E 004°36'0 0.0
2018-Apr-22 06:30N 51°41' E 004°36'0 0.0
2018-Apr-22 06:00N 51°41' E 004°36'0 0.0
2018-Apr-22 05:30N 51°41' E 004°36'0 0.0
2018-Apr-22 05:00N 51°41' E 004°36'0 0.0
2018-Apr-22 04:30N 51°41' E 004°36'0 0.0
2018-Apr-22 04:00N 51°41' E 004°36'0 0.0
2018-Apr-22 03:30N 51°41' E 004°36'0 0.0
2018-Apr-22 03:00N 51°41' E 004°36'0 0.0
2018-Apr-22 02:30N 51°41' E 004°36'0 0.0
2018-Apr-22 02:00N 51°41' E 004°36'0 0.0
2018-Apr-22 01:28N 51°41' E 004°36'0 0.0
2018-Apr-22 01:00N 51°41' E 004°36'0 0.0
2018-Apr-22 00:26N 51°41' E 004°36'0 0.0
2018-Apr-22 00:00N 51°41' E 004°36'0 0.0
2018-Apr-21 23:30N 51°41' E 004°36'0 0.0
2018-Apr-21 23:00N 51°41' E 004°36'0 0.0
2018-Apr-21 22:30N 51°41' E 004°36'0 0.0
2018-Apr-21 21:59N 51°41' E 004°36'0 0.0
2018-Apr-21 21:30N 51°41' E 004°36'0 0.0
2018-Apr-21 21:00N 51°41' E 004°36'0 0.0
2018-Apr-21 20:30N 51°41' E 004°36'0 0.0
2018-Apr-21 20:00N 51°41' E 004°36'0 0.0
2018-Apr-21 19:30N 51°41' E 004°36'0 0.0
2018-Apr-21 19:00N 51°41' E 004°36'0 0.0
2018-Apr-21 18:24N 51°41' E 004°36'0 0.0
2018-Apr-21 18:00N 51°41' E 004°36'0 0.0
2018-Apr-21 17:28N 51°41' E 004°36'0 0.0
2018-Apr-21 17:00N 51°41' E 004°36'0 0.0
2018-Apr-21 16:30N 51°41' E 004°36'0 0.0
2018-Apr-21 15:59N 51°41' E 004°36'0 0.0
2018-Apr-21 15:30N 51°41' E 004°36'0 0.0
2018-Apr-21 14:57N 51°41' E 004°36'0 0.0
2018-Apr-21 14:30N 51°41' E 004°36'0 0.0
2018-Apr-21 14:00N 51°41' E 004°36'0 0.0
2018-Apr-21 13:30N 51°41' E 004°36'0 0.0
2018-Apr-21 13:00N 51°41' E 004°36'0 0.0
2018-Apr-21 12:28N 51°41' E 004°36'0 0.1
2018-Apr-21 11:56N 51°41' E 004°36'0 0.0
2018-Apr-21 11:29N 51°41' E 004°36'0 0.0
2018-Apr-21 10:59N 51°41' E 004°36'0 0.0
2018-Apr-21 10:29N 51°41' E 004°36'0 0.0
2018-Apr-21 10:00N 51°41' E 004°36'0 0.0
2018-Apr-21 09:25N 51°41' E 004°36'0 0.0
2018-Apr-21 08:57N 51°41' E 004°36'0 0.0
2018-Apr-21 08:30N 51°41' E 004°36'0 0.0
2018-Apr-21 08:00N 51°41' E 004°36'0 0.0
2018-Apr-21 07:30N 51°41' E 004°36'0 0.0
2018-Apr-21 07:00N 51°41' E 004°36'0 0.0
2018-Apr-21 06:28N 51°41' E 004°36'0 0.0
2018-Apr-21 06:00N 51°41' E 004°36'0 0.0
2018-Apr-21 05:30N 51°41' E 004°36'0 0.0
2018-Apr-21 05:00N 51°41' E 004°36'0 0.0
2018-Apr-21 04:29N 51°41' E 004°36'0 0.0
2018-Apr-21 03:58N 51°41' E 004°36'0 0.0
2018-Apr-21 03:30N 51°41' E 004°36'0 0.0
2018-Apr-21 02:51N 51°41' E 004°36'0 0.0
2018-Apr-21 02:10N 51°41' E 004°36'0 0.0
2018-Apr-21 01:50N 51°41' E 004°36'0 0.0
2018-Apr-21 01:25N 51°41' E 004°36'0 0.0
2018-Apr-21 01:00N 51°41' E 004°36'0 0.0
2018-Apr-21 00:27N 51°41' E 004°36'0 0.0
2018-Apr-20 23:57N 51°41' E 004°36'0 0.0
2018-Apr-20 23:30N 51°41' E 004°36'0 0.0
2018-Apr-20 23:00N 51°41' E 004°36'0 0.0
2018-Apr-20 22:29N 51°41' E 004°36'0 0.0
2018-Apr-20 22:00N 51°41' E 004°36'0 0.0
2018-Apr-20 21:30N 51°41' E 004°36'0 0.0
2018-Apr-20 21:00N 51°41' E 004°36'0 0.0
2018-Apr-20 20:30N 51°41' E 004°36'0 0.0
2018-Apr-20 20:00N 51°41' E 004°36'0 0.0
2018-Apr-20 19:30N 51°41' E 004°36'0 0.0
2018-Apr-20 19:00N 51°41' E 004°36'0 0.0
2018-Apr-20 18:30N 51°41' E 004°36'0 0.0
2018-Apr-20 17:59N 51°41' E 004°36'0 0.0
2018-Apr-20 17:30N 51°41' E 004°36'0 0.0
2018-Apr-20 16:59N 51°41' E 004°36'0 0.0
2018-Apr-20 16:30N 51°41' E 004°36'0 0.0
2018-Apr-20 16:00N 51°41' E 004°36'0 0.0
2018-Apr-20 15:29N 51°41' E 004°36'0 0.0
2018-Apr-20 15:00N 51°41' E 004°36'0 0.0
2018-Apr-20 14:29N 51°41' E 004°36'0 0.0
2018-Apr-20 13:59N 51°41' E 004°36'0 0.0
2018-Apr-20 13:30N 51°41' E 004°36'0 0.0
2018-Apr-20 12:59N 51°41' E 004°36'0 0.0
2018-Apr-20 12:30N 51°41' E 004°36'0 0.0
2018-Apr-20 11:59N 51°41' E 004°36'0 0.0
2018-Apr-20 11:29N 51°41' E 004°36'0 0.0
2018-Apr-20 11:00N 51°41' E 004°36'0 0.0
2018-Apr-20 10:29N 51°41' E 004°36'0 0.0
2018-Apr-20 10:00N 51°41' E 004°36'0 0.0
2018-Apr-20 09:30N 51°41' E 004°36'0 0.0
2018-Apr-20 09:00N 51°41' E 004°36'0 0.0
2018-Apr-20 08:30N 51°41' E 004°36'0 0.0
2018-Apr-20 08:00N 51°41' E 004°36'0 0.0
2018-Apr-20 07:30N 51°41' E 004°36'0 0.0
2018-Apr-20 07:00N 51°41' E 004°36'0 0.0
2018-Apr-20 06:30N 51°41' E 004°36'0 0.0
2018-Apr-20 06:00N 51°41' E 004°36'0 0.0
2018-Apr-20 05:30N 51°41' E 004°36'0 0.0
2018-Apr-20 05:00N 51°41' E 004°36'0 0.0
2018-Apr-20 04:30N 51°41' E 004°36'0 0.0
2018-Apr-20 03:57N 51°41' E 004°36'0 0.0
2018-Apr-20 03:30N 51°41' E 004°36'0 0.0
2018-Apr-20 03:00N 51°41' E 004°36'0 0.0
2018-Apr-20 02:30N 51°41' E 004°36'0 0.0
2018-Apr-20 01:59N 51°41' E 004°36'0 0.0
2018-Apr-20 01:30N 51°41' E 004°36'0 0.0
2018-Apr-20 01:00N 51°41' E 004°36'0 0.0
2018-Apr-20 00:30N 51°41' E 004°36'0 0.0
2018-Apr-20 00:00N 51°41' E 004°36'0 0.0
2018-Apr-19 23:30N 51°41' E 004°36'0 0.0
2018-Apr-19 23:00N 51°41' E 004°36'0 0.0
2018-Apr-19 22:29N 51°41' E 004°36'0 0.0
2018-Apr-19 22:00N 51°41' E 004°36'0 0.0
2018-Apr-19 21:30N 51°41' E 004°36'0 0.0
2018-Apr-19 21:00N 51°41' E 004°36'0 0.0
2018-Apr-19 20:30N 51°41' E 004°36'0 0.0
2018-Apr-19 20:00N 51°41' E 004°36'0 0.0
2018-Apr-19 19:30N 51°41' E 004°36'0 0.0
2018-Apr-19 19:00N 51°41' E 004°36'0 0.0
2018-Apr-19 18:30N 51°41' E 004°36'0 0.0
2018-Apr-19 18:00N 51°41' E 004°36'0 0.0
2018-Apr-19 17:30N 51°41' E 004°36'0 0.0
2018-Apr-19 17:00N 51°41' E 004°36'0 0.0
2018-Apr-19 16:30N 51°41' E 004°36'0 0.0
2018-Apr-19 16:00N 51°41' E 004°36'0 0.0
2018-Apr-19 15:25N 51°41' E 004°36'0 0.0
2018-Apr-19 14:50N 51°41' E 004°36'0 0.0
2018-Apr-19 14:24N 51°41' E 004°36'0 0.0
2018-Apr-19 14:00N 51°41' E 004°36'0 0.0
2018-Apr-19 13:20N 51°41' E 004°36'0 0.0
2018-Apr-19 13:00N 51°41' E 004°36'1 1.2
2018-Apr-19 12:30N 51°42' E 004°35'3 6.1
2018-Apr-19 12:00N 51°44' E 004°38'3 5.7
2018-Apr-19 11:30N 51°47' E 004°37'3 5.1
2018-Apr-19 11:00N 51°49' E 004°34'2 4.4
2018-Apr-19 10:30N 51°50' E 004°31'3 5.3
2018-Apr-19 10:00N 51°50' E 004°27'2 4.9
2018-Apr-19 09:30N 51°51' E 004°23'3 5.1
2018-Apr-19 09:00N 51°52' E 004°20'2 4.8
2018-Apr-19 08:30N 51°54' E 004°17'2 3.5
2018-Apr-19 08:00N 51°55' E 004°15'0 0.0
2018-Apr-19 07:29N 51°55' E 004°15'0 0.0
2018-Apr-19 06:59N 51°55' E 004°15'0 0.0
2018-Apr-19 06:23N 51°55' E 004°15'0 0.0
2018-Apr-19 05:56N 51°55' E 004°15'0 0.0
2018-Apr-19 05:26N 51°55' E 004°15'0 0.7
2018-Apr-19 05:00N 51°55' E 004°15'0 0.0
2018-Apr-19 04:30N 51°55' E 004°15'0 0.0
2018-Apr-19 03:59N 51°55' E 004°15'0 0.0
2018-Apr-19 03:30N 51°55' E 004°15'0 0.0
2018-Apr-19 03:00N 51°55' E 004°15'0 0.0
2018-Apr-19 02:30N 51°55' E 004°15'0 0.0
2018-Apr-19 01:59N 51°55' E 004°15'0 0.0
2018-Apr-19 01:29N 51°55' E 004°15'0 0.0
2018-Apr-19 00:59N 51°55' E 004°15'0 0.0
2018-Apr-19 00:30N 51°55' E 004°15'0 0.0
2018-Apr-18 23:56N 51°55' E 004°15'0 0.0
2018-Apr-18 23:30N 51°55' E 004°15'0 0.0
2018-Apr-18 23:00N 51°55' E 004°15'0 0.0
2018-Apr-18 22:30N 51°55' E 004°15'0 0.0
2018-Apr-18 22:00N 51°55' E 004°15'0 0.0
2018-Apr-18 21:30N 51°55' E 004°15'0 0.0
2018-Apr-18 21:00N 51°55' E 004°15'0 0.0
2018-Apr-18 20:30N 51°55' E 004°15'0 0.0
2018-Apr-18 20:00N 51°55' E 004°15'0 0.0
2018-Apr-18 19:30N 51°55' E 004°15'0 0.0
2018-Apr-18 19:00N 51°55' E 004°15'0 0.0
2018-Apr-18 18:30N 51°55' E 004°15'0 0.0
2018-Apr-18 17:59N 51°55' E 004°15'0 0.0
2018-Apr-18 17:30N 51°55' E 004°15'0 0.0
2018-Apr-18 17:00N 51°55' E 004°15'0 0.1
2018-Apr-18 16:30N 51°55' E 004°15'0 0.0
2018-Apr-18 16:00N 51°55' E 004°15'0 0.0
2018-Apr-18 15:30N 51°55' E 004°15'0 0.0
2018-Apr-18 15:00N 51°55' E 004°15'0 0.0
2018-Apr-18 14:30N 51°55' E 004°15'0 0.0
2018-Apr-18 14:00N 51°55' E 004°15'0 0.0
2018-Apr-18 13:30N 51°55' E 004°15'0 0.0
2018-Apr-18 13:00N 51°55' E 004°15'0 0.0
2018-Apr-18 12:30N 51°55' E 004°15'0 0.0
2018-Apr-18 12:00N 51°55' E 004°15'0 0.0
2018-Apr-18 11:30N 51°55' E 004°15'0 0.0
2018-Apr-18 11:00N 51°55' E 004°15'0 0.0
2018-Apr-18 10:30N 51°55' E 004°15'0 0.0
2018-Apr-18 10:00N 51°55' E 004°15'0 0.0
2018-Apr-18 09:30N 51°55' E 004°15'0 0.0
2018-Apr-18 09:00N 51°55' E 004°15'0 0.0
2018-Apr-18 08:30N 51°55' E 004°15'0 0.0
2018-Apr-18 08:00N 51°55' E 004°15'0 0.0
2018-Apr-18 07:30N 51°55' E 004°15'0 0.0
2018-Apr-18 07:00N 51°55' E 004°15'0 0.0
2018-Apr-18 06:30N 51°55' E 004°15'0 0.0
2018-Apr-18 06:00N 51°55' E 004°15'0 0.0
2018-Apr-18 05:30N 51°55' E 004°15'0 0.0
2018-Apr-18 05:00N 51°55' E 004°15'0 0.0
2018-Apr-18 04:30N 51°55' E 004°15'0 0.0
2018-Apr-18 04:00N 51°55' E 004°15'0 0.0
2018-Apr-18 03:30N 51°55' E 004°15'0 0.0
2018-Apr-18 02:59N 51°55' E 004°15'0 0.0
2018-Apr-18 02:30N 51°55' E 004°15'0 0.0
2018-Apr-18 02:00N 51°55' E 004°15'0 0.0
2018-Apr-18 01:30N 51°55' E 004°15'0 0.0
2018-Apr-18 01:00N 51°55' E 004°15'0 0.0
2018-Apr-18 00:30N 51°55' E 004°15'0 0.0
2018-Apr-18 00:00N 51°55' E 004°15'0 0.0
2018-Apr-17 23:30N 51°55' E 004°15'0 0.0
2018-Apr-17 23:00N 51°55' E 004°15'0 0.0
2018-Apr-17 22:30N 51°55' E 004°15'0 0.0
2018-Apr-17 22:00N 51°55' E 004°15'0 0.0
2018-Apr-17 21:30N 51°55' E 004°15'0 0.0
2018-Apr-17 21:00N 51°55' E 004°15'0 0.0
2018-Apr-17 20:30N 51°55' E 004°15'0 0.0
2018-Apr-17 20:00N 51°55' E 004°15'0 0.0
2018-Apr-17 19:30N 51°55' E 004°15'0 0.0
2018-Apr-17 19:00N 51°55' E 004°15'0 0.0
2018-Apr-17 18:30N 51°55' E 004°15'0 0.0
2018-Apr-17 18:00N 51°55' E 004°15'0 0.0
2018-Apr-17 17:30N 51°55' E 004°15'0 0.0
2018-Apr-17 17:00N 51°55' E 004°15'0 0.0
2018-Apr-17 16:30N 51°55' E 004°15'0 0.0
2018-Apr-17 16:00N 51°55' E 004°15'0 0.0
2018-Apr-17 15:30N 51°55' E 004°15'0 0.0
2018-Apr-17 15:00N 51°55' E 004°15'0 0.0
2018-Apr-17 14:30N 51°55' E 004°15'0 0.0
2018-Apr-17 14:00N 51°55' E 004°15'0 0.0
2018-Apr-17 13:30N 51°55' E 004°15'0 0.0
2018-Apr-17 13:00N 51°55' E 004°15'0 0.0
2018-Apr-17 12:30N 51°55' E 004°15'0 0.0
2018-Apr-17 12:00N 51°55' E 004°15'0 0.0
2018-Apr-17 11:30N 51°55' E 004°15'0 0.0
2018-Apr-17 11:00N 51°55' E 004°15'0 0.0
2018-Apr-17 10:30N 51°55' E 004°15'0 0.0
2018-Apr-17 10:00N 51°55' E 004°15'0 0.0
2018-Apr-17 09:30N 51°55' E 004°15'0 0.0
2018-Apr-17 09:00N 51°55' E 004°15'0 0.0
2018-Apr-17 08:30N 51°55' E 004°15'0 0.0
2018-Apr-17 08:00N 51°55' E 004°15'0 0.0
2018-Apr-17 07:30N 51°55' E 004°15'0 0.0
2018-Apr-17 07:00N 51°55' E 004°15'0 0.0
2018-Apr-17 06:30N 51°55' E 004°15'0 0.0
2018-Apr-17 06:00N 51°55' E 004°15'0 0.0
2018-Apr-17 05:30N 51°55' E 004°15'0 0.0
2018-Apr-17 05:00N 51°55' E 004°15'0 0.0
2018-Apr-17 04:30N 51°55' E 004°15'0 0.0
2018-Apr-17 04:00N 51°55' E 004°15'0 0.0
2018-Apr-17 03:30N 51°55' E 004°15'0 0.0
2018-Apr-17 03:00N 51°55' E 004°15'0 0.0
2018-Apr-17 02:30N 51°55' E 004°15'0 0.0
2018-Apr-17 02:00N 51°55' E 004°15'0 0.0
2018-Apr-17 01:30N 51°55' E 004°15'0 0.0
2018-Apr-17 01:00N 51°55' E 004°15'0 0.0
2018-Apr-17 00:30N 51°55' E 004°15'0 0.0
2018-Apr-17 00:00N 51°55' E 004°15'0 0.0
2018-Apr-16 23:30N 51°55' E 004°15'0 0.0
2018-Apr-16 23:00N 51°55' E 004°15'0 0.0
2018-Apr-16 22:30N 51°55' E 004°15'0 0.0
2018-Apr-16 22:00N 51°55' E 004°15'0 0.0
2018-Apr-16 21:30N 51°55' E 004°15'0 0.0
2018-Apr-16 21:00N 51°55' E 004°15'0 0.0
2018-Apr-16 20:30N 51°55' E 004°15'0 0.0
2018-Apr-16 20:00N 51°55' E 004°15'0 0.0
2018-Apr-16 19:30N 51°55' E 004°15'0 0.0
2018-Apr-16 19:00N 51°55' E 004°15'0 0.0
2018-Apr-16 18:30N 51°55' E 004°15'0 0.0
2018-Apr-16 18:00N 51°55' E 004°15'0 0.0
2018-Apr-16 17:30N 51°55' E 004°15'0 0.0
2018-Apr-16 17:00N 51°55' E 004°15'0 0.0
2018-Apr-16 16:30N 51°55' E 004°15'0 0.0
2018-Apr-16 16:00N 51°55' E 004°15'0 0.0
2018-Apr-16 15:30N 51°55' E 004°15'0 0.0
2018-Apr-16 15:00N 51°55' E 004°15'0 0.0
2018-Apr-16 14:30N 51°55' E 004°15'0 0.0
2018-Apr-16 14:00N 51°55' E 004°15'0 0.0
2018-Apr-16 13:30N 51°55' E 004°15'0 0.0
2018-Apr-16 13:00N 51°55' E 004°15'0 0.0
2018-Apr-16 12:30N 51°55' E 004°15'0 0.0
2018-Apr-16 12:00N 51°55' E 004°15'0 0.0
2018-Apr-16 11:30N 51°55' E 004°15'0 0.0
2018-Apr-16 11:00N 51°55' E 004°15'0 0.0
2018-Apr-16 10:30N 51°55' E 004°15'0 0.0
2018-Apr-16 10:00N 51°55' E 004°15'0 0.0
2018-Apr-16 09:28N 51°55' E 004°15'0 0.0
2018-Apr-16 09:00N 51°55' E 004°15'0 0.0
2018-Apr-16 08:30N 51°55' E 004°15'0 0.0
2018-Apr-16 08:00N 51°55' E 004°15'0 0.0
2018-Apr-16 07:30N 51°55' E 004°15'0 0.0
2018-Apr-16 07:00N 51°55' E 004°15'0 0.0
2018-Apr-16 06:30N 51°55' E 004°15'0 0.0
2018-Apr-16 06:00N 51°55' E 004°15'0 0.0
2018-Apr-16 05:30N 51°55' E 004°15'0 0.0
2018-Apr-16 05:00N 51°55' E 004°15'0 0.0
2018-Apr-16 04:30N 51°55' E 004°15'0 0.0
2018-Apr-16 04:00N 51°55' E 004°15'0 0.0
2018-Apr-16 03:30N 51°55' E 004°15'0 0.0
2018-Apr-16 03:00N 51°55' E 004°15'0 0.0
2018-Apr-16 02:30N 51°55' E 004°15'0 0.0
2018-Apr-16 02:00N 51°55' E 004°15'0 0.0
2018-Apr-16 01:30N 51°55' E 004°15'0 0.0
2018-Apr-16 01:00N 51°55' E 004°15'0 0.0
2018-Apr-16 00:30N 51°55' E 004°15'0 0.0
2018-Apr-16 00:00N 51°55' E 004°15'0 0.0
2018-Apr-15 23:30N 51°55' E 004°15'0 0.0
2018-Apr-15 23:00N 51°55' E 004°15'0 0.0
2018-Apr-15 22:30N 51°55' E 004°15'0 0.0
2018-Apr-15 22:00N 51°55' E 004°15'0 0.0
2018-Apr-15 21:30N 51°55' E 004°15'0 0.0
2018-Apr-15 21:00N 51°55' E 004°15'0 0.0
2018-Apr-15 20:30N 51°55' E 004°15'0 0.0
2018-Apr-15 20:00N 51°55' E 004°15'0 0.0
2018-Apr-15 19:30N 51°55' E 004°15'0 0.0
2018-Apr-15 19:00N 51°55' E 004°15'0 0.0
2018-Apr-15 18:30N 51°55' E 004°15'0 0.0
2018-Apr-15 18:00N 51°55' E 004°15'0 0.0
2018-Apr-15 17:30N 51°55' E 004°15'0 0.0
2018-Apr-15 17:00N 51°55' E 004°15'0 0.0
2018-Apr-15 16:30N 51°55' E 004°15'0 0.0
2018-Apr-15 16:00N 51°55' E 004°15'0 0.0
2018-Apr-15 15:29N 51°55' E 004°15'0 0.0
2018-Apr-15 15:00N 51°55' E 004°15'0 0.0
2018-Apr-15 14:30N 51°55' E 004°15'0 0.0
2018-Apr-15 14:00N 51°55' E 004°15'0 0.0
2018-Apr-15 13:30N 51°55' E 004°15'0 0.0
2018-Apr-15 13:00N 51°55' E 004°15'0 0.0
2018-Apr-15 12:30N 51°55' E 004°15'0 0.0
2018-Apr-15 12:00N 51°55' E 004°15'0 0.0
2018-Apr-15 11:30N 51°55' E 004°15'0 0.0
2018-Apr-15 11:00N 51°55' E 004°15'0 0.0
2018-Apr-15 10:30N 51°55' E 004°15'0 0.0
2018-Apr-15 10:00N 51°55' E 004°15'0 0.0
2018-Apr-15 09:30N 51°55' E 004°15'0 0.0
2018-Apr-15 09:00N 51°55' E 004°15'0 0.0
2018-Apr-15 08:30N 51°55' E 004°15'0 0.0
2018-Apr-15 08:00N 51°55' E 004°15'0 0.0
2018-Apr-15 07:30N 51°55' E 004°15'0 0.0
2018-Apr-15 07:00N 51°55' E 004°15'0 0.0
2018-Apr-15 06:30N 51°55' E 004°15'  

Dump ship's entire track history